Time;durP1;ratioP1;P1;durP2;ratioP2;P2;SDS_P1;SDS_P2;PMS_P1;PMS_P2;Temp;Humidity;BMP_temperature;BMP_pressure;BME280_temperature;BME280_humidity;BME280_pressure;Samples;Min_cycle;Max_cycle;Signal;HPM_P1;HPM_P2
2022/07/20 00:01:33;;;;;;;4.15;3.85;;;23.90;56.90;;;;;;5051845;28;20214;-70
2022/07/20 00:03:58;;;;;;;4.63;3.60;;;23.90;56.90;;;;;;5035477;28;20182;-71
2022/07/20 00:06:24;;;;;;;4.18;3.83;;;23.90;56.90;;;;;;5051643;28;20283;-71
2022/07/20 00:11:34;;;;;;;3.75;3.45;;;23.90;57.00;;;;;;5052856;28;20194;-70
2022/07/20 00:14:02;;;;;;;4.22;3.85;;;23.90;57.00;;;;;;5051809;28;20182;-70
2022/07/20 00:16:31;;;;;;;4.10;3.70;;;23.90;57.00;;;;;;5051471;28;20190;-70
2022/07/20 00:18:57;;;;;;;3.85;3.47;;;23.90;57.00;;;;;;5034167;28;20187;-70
2022/07/20 00:21:24;;;;;;;4.40;3.90;;;23.90;56.90;;;;;;5052615;28;20248;-70
2022/07/20 00:23:50;;;;;;;4.40;4.00;;;23.90;56.90;;;;;;5051894;28;20186;-70
2022/07/20 00:26:17;;;;;;;3.97;3.58;;;23.90;57.00;;;;;;5051183;28;20206;-70
2022/07/20 00:28:42;;;;;;;4.05;3.70;;;23.90;56.90;;;;;;5050835;28;20179;-70
2022/07/20 00:31:09;;;;;;;3.90;3.53;;;23.90;56.90;;;;;;5034731;28;20189;-70
2022/07/20 00:33:35;;;;;;;3.50;3.20;;;23.90;57.20;;;;;;5051211;28;20182;-70
2022/07/20 00:36:02;;;;;;;4.35;3.50;;;23.90;56.90;;;;;;5034764;28;20194;-70
2022/07/20 00:38:27;;;;;;;3.85;3.50;;;23.90;56.90;;;;;;5050666;28;20629;-70
2022/07/20 00:40:53;;;;;;;3.65;3.35;;;23.90;56.90;;;;;;5034742;28;20203;-70
2022/07/20 00:43:19;;;;;;;4.10;3.80;;;23.80;57.40;;;;;;5034875;28;20206;-70
2022/07/20 00:45:45;;;;;;;4.22;3.90;;;23.90;56.90;;;;;;5051391;28;20209;-71
2022/07/20 00:48:12;;;;;;;4.20;3.80;;;23.90;57.00;;;;;;5050714;28;20261;-70
2022/07/20 00:50:38;;;;;;;3.67;3.35;;;23.90;57.00;;;;;;5051413;28;20253;-71
2022/07/20 00:53:04;;;;;;;4.07;3.67;;;23.90;57.00;;;;;;5051150;28;20202;-71
2022/07/20 00:55:30;;;;;;;3.95;3.65;;;23.90;57.00;;;;;;5050945;28;20221;-70
2022/07/20 00:57:56;;;;;;;3.70;3.40;;;23.80;57.00;;;;;;5051682;28;20258;-70
2022/07/20 01:00:23;;;;;;;3.55;3.25;;;23.80;57.00;;;;;;5052138;28;20278;-71
2022/07/20 01:02:49;;;;;;;4.00;3.70;;;23.80;57.00;;;;;;5052140;28;20274;-70
2022/07/20 01:05:14;;;;;;;3.70;3.40;;;23.90;57.20;;;;;;5034453;28;20277;-71
2022/07/20 01:07:44;;;;;;;4.38;4.00;;;23.90;57.10;;;;;;5051505;28;20216;-71
2022/07/20 01:10:12;;;;;;;3.70;3.40;;;23.80;57.10;;;;;;5051050;28;20182;-70
2022/07/20 01:12:43;;;;;;;3.30;3.10;;;23.80;57.00;;;;;;5052004;28;20210;-71
2022/07/20 01:15:09;;;;;;;3.65;3.15;;;23.80;57.00;;;;;;5050888;28;20252;-71
2022/07/20 01:17:35;;;;;;;3.75;3.30;;;23.90;57.20;;;;;;5050023;28;20186;-70
2022/07/20 01:20:00;;;;;;;3.85;3.53;;;23.80;57.10;;;;;;5050662;28;20237;-70
2022/07/20 01:22:26;;;;;;;3.67;3.38;;;23.90;57.20;;;;;;5050800;28;20205;-70
2022/07/20 01:24:52;;;;;;;3.53;3.22;;;23.80;57.10;;;;;;5051007;28;20194;-70
2022/07/20 01:27:18;;;;;;;3.60;3.30;;;23.80;57.10;;;;;;5049992;28;20210;-70
2022/07/20 01:29:43;;;;;;;4.07;3.67;;;23.80;57.10;;;;;;5050670;28;20694;-70
2022/07/20 01:32:09;;;;;;;3.40;3.20;;;23.90;57.30;;;;;;5050664;28;20217;-70
2022/07/20 01:34:35;;;;;;;3.92;3.60;;;23.80;57.20;;;;;;5034153;28;20197;-70
2022/07/20 01:37:01;;;;;;;3.47;3.17;;;23.80;57.20;;;;;;5051380;28;20205;-70
2022/07/20 01:39:27;;;;;;;4.00;3.67;;;23.80;57.20;;;;;;5052740;28;20200;-71
2022/07/20 01:41:53;;;;;;;3.50;3.20;;;23.80;57.20;;;;;;5054390;28;20693;-70
2022/07/20 01:44:22;;;;;;;3.75;3.45;;;23.80;57.30;;;;;;5054617;28;20630;-70
2022/07/20 01:46:50;;;;;;;3.30;3.10;;;23.80;57.30;;;;;;5054154;28;20218;-70
2022/07/20 01:49:18;;;;;;;3.92;3.60;;;23.80;57.30;;;;;;5054620;28;20206;-70
2022/07/20 01:51:44;;;;;;;3.50;3.20;;;23.80;57.40;;;;;;5055444;28;20293;-70
2022/07/20 01:54:11;;;;;;;4.15;3.75;;;23.80;57.40;;;;;;5055564;28;20197;-70
2022/07/20 01:56:40;;;;;;;3.42;3.13;;;23.80;57.40;;;;;;5054241;28;20201;-70
2022/07/20 01:59:07;;;;;;;3.35;3.05;;;23.80;57.40;;;;;;5037204;28;20178;-70
2022/07/20 02:01:34;;;;;;;3.72;3.42;;;23.80;57.40;;;;;;5055180;28;20332;-70
2022/07/20 02:03:59;;;;;;;3.50;3.20;;;23.80;57.50;;;;;;5054213;28;20550;-70
2022/07/20 02:06:25;;;;;;;3.50;3.20;;;23.80;57.40;;;;;;5053963;28;20210;-70
2022/07/20 02:08:51;;;;;;;3.58;3.28;;;23.80;57.40;;;;;;5053334;28;20277;-70
2022/07/20 02:11:17;;;;;;;3.67;3.38;;;23.80;57.40;;;;;;5037503;28;20347;-71
2022/07/20 02:13:43;;;;;;;3.53;3.28;;;23.80;57.50;;;;;;5037536;28;20183;-71
2022/07/20 02:16:17;;;;;;;3.30;2.85;;;23.80;57.50;;;;;;5054973;28;20182;-71
2022/07/20 02:18:48;;;;;;;4.13;3.72;;;23.80;57.50;;;;;;5053025;28;20186;-70
2022/07/20 02:21:17;;;;;;;3.25;3.00;;;23.80;57.50;;;;;;5054141;28;20202;-71
2022/07/20 02:23:43;;;;;;;4.20;3.33;;;23.80;57.50;;;;;;5037471;28;20186;-70
2022/07/20 02:26:09;;;;;;;3.60;3.08;;;23.80;57.50;;;;;;5036889;28;20209;-70
2022/07/20 02:28:36;;;;;;;2.95;2.65;;;23.80;57.50;;;;;;5053180;28;20166;-70
2022/07/20 02:31:03;;;;;;;3.05;2.83;;;23.80;57.50;;;;;;5053648;28;20194;-70
2022/07/20 02:33:29;;;;;;;2.92;2.72;;;23.80;57.50;;;;;;5036837;28;20331;-70
2022/07/20 02:35:55;;;;;;;3.45;3.15;;;23.80;57.50;;;;;;5054714;28;20229;-70
2022/07/20 02:38:21;;;;;;;3.50;3.20;;;23.80;57.50;;;;;;5052812;28;20614;-70
2022/07/20 02:40:47;;;;;;;3.10;2.90;;;23.80;57.50;;;;;;5036806;28;20268;-70
2022/07/20 02:43:13;;;;;;;3.97;3.58;;;23.80;57.50;;;;;;5053274;28;20230;-70
2022/07/20 02:45:38;;;;;;;3.30;3.00;;;23.80;57.50;;;;;;5053160;28;20285;-70
2022/07/20 02:48:04;;;;;;;3.60;3.30;;;23.80;57.50;;;;;;5052766;28;20266;-70
2022/07/20 02:50:33;;;;;;;3.63;3.33;;;23.80;57.50;;;;;;5036848;28;20186;-70
2022/07/20 02:53:00;;;;;;;3.30;3.10;;;23.80;57.60;;;;;;5051400;28;20215;-70
2022/07/20 02:55:27;;;;;;;3.38;3.08;;;23.80;57.60;;;;;;5034368;28;20181;-70
2022/07/20 02:57:53;;;;;;;3.50;3.20;;;23.80;57.60;;;;;;5035625;28;20210;-70
2022/07/20 03:00:20;;;;;;;3.70;3.40;;;23.80;57.60;;;;;;5054283;28;20235;-70
2022/07/20 03:02:47;;;;;;;3.30;3.03;;;23.80;57.60;;;;;;5054248;28;20202;-71
2022/07/20 03:05:14;;;;;;;3.45;3.25;;;23.80;57.60;;;;;;5052886;28;20187;-70
2022/07/20 03:07:39;;;;;;;2.80;2.60;;;23.80;57.60;;;;;;5035633;28;20229;-70
2022/07/20 03:10:06;;;;;;;3.88;3.28;;;23.80;57.60;;;;;;5054027;28;20269;-70
2022/07/20 03:12:33;;;;;;;3.33;3.08;;;23.80;57.60;;;;;;5036155;28;20206;-70
2022/07/20 03:14:58;;;;;;;3.47;3.17;;;23.70;57.60;;;;;;5053112;28;20202;-71
2022/07/20 03:17:24;;;;;;;3.35;3.15;;;23.80;57.70;;;;;;5053297;28;20221;-70
2022/07/20 03:19:50;;;;;;;4.25;3.50;;;23.80;57.70;;;;;;5035761;28;20189;-71
2022/07/20 03:22:17;;;;;;;3.38;3.13;;;23.80;57.70;;;;;;5052485;28;20211;-71
2022/07/20 03:24:43;;;;;;;2.88;2.67;;;23.70;57.60;;;;;;5019461;28;20265;-70
2022/07/20 03:27:09;;;;;;;3.13;2.83;;;23.80;57.70;;;;;;5051870;28;20756;-70
2022/07/20 03:29:35;;;;;;;3.72;3.20;;;23.70;57.70;;;;;;5036157;28;20192;-70
2022/07/20 03:32:01;;;;;;;3.05;2.85;;;23.80;57.80;;;;;;5052270;28;20245;-70
2022/07/20 03:34:27;;;;;;;3.40;3.10;;;23.70;57.70;;;;;;5052481;28;20707;-70
2022/07/20 03:36:53;;;;;;;3.38;3.03;;;23.70;57.70;;;;;;5053546;28;20644;-70
2022/07/20 03:39:19;;;;;;;3.65;3.25;;;23.70;57.70;;;;;;5051929;28;20170;-70
2022/07/20 03:41:44;;;;;;;3.15;2.92;;;23.70;57.70;;;;;;5052899;28;20202;-70
2022/07/20 03:44:10;;;;;;;3.60;3.30;;;23.70;57.70;;;;;;5052384;28;20668;-70
2022/07/20 03:46:36;;;;;;;3.13;2.92;;;23.70;57.80;;;;;;5051962;28;20308;-70
2022/07/20 03:49:02;;;;;;;3.13;2.90;;;23.70;57.80;;;;;;5051651;28;20642;-70
2022/07/20 03:51:28;;;;;;;3.28;2.97;;;23.70;57.80;;;;;;5035495;28;20198;-70
2022/07/20 03:53:54;;;;;;;3.60;3.30;;;23.70;57.80;;;;;;5018895;28;20174;-70
2022/07/20 03:56:20;;;;;;;3.35;3.05;;;23.70;57.80;;;;;;5051955;28;20190;-70
2022/07/20 03:58:46;;;;;;;3.03;2.60;;;23.70;57.80;;;;;;5051694;28;20179;-70
2022/07/20 04:01:12;;;;;;;3.90;3.53;;;23.70;57.80;;;;;;5051113;28;20218;-70
2022/07/20 04:03:38;;;;;;;3.38;3.08;;;23.70;57.80;;;;;;5052077;28;20182;-70
2022/07/20 04:06:04;;;;;;;3.33;3.03;;;23.70;57.80;;;;;;5051648;28;20209;-70
2022/07/20 04:08:30;;;;;;;3.50;3.20;;;23.70;57.80;;;;;;5051143;28;20190;-71
2022/07/20 04:10:56;;;;;;;3.20;2.90;;;23.70;57.80;;;;;;5052831;28;20171;-70
2022/07/20 04:13:21;;;;;;;3.03;2.75;;;23.70;57.80;;;;;;5051689;28;20277;-70
2022/07/20 04:15:47;;;;;;;3.13;2.92;;;23.70;57.80;;;;;;5051813;28;20273;-70
2022/07/20 04:18:16;;;;;;;3.15;2.92;;;23.70;57.80;;;;;;5050790;28;20190;-71
2022/07/20 04:20:42;;;;;;;3.42;3.13;;;23.70;57.90;;;;;;5051439;28;20182;-70
2022/07/20 04:23:08;;;;;;;3.03;2.83;;;23.70;57.90;;;;;;5052595;28;20678;-70
2022/07/20 04:25:34;;;;;;;3.55;3.00;;;23.70;57.90;;;;;;5050893;28;20192;-70
2022/07/20 04:28:00;;;;;;;3.35;3.05;;;23.70;57.90;;;;;;5034200;28;20239;-70
2022/07/20 04:30:25;;;;;;;3.47;3.20;;;23.70;57.90;;;;;;5035051;28;20638;-70
2022/07/20 04:32:51;;;;;;;3.20;2.90;;;23.70;57.90;;;;;;5034737;28;20238;-70
2022/07/20 04:35:17;;;;;;;3.53;3.03;;;23.60;57.80;;;;;;5052842;28;20182;-70
2022/07/20 04:37:43;;;;;;;3.25;2.72;;;23.60;57.80;;;;;;5050708;28;20186;-70
2022/07/20 04:40:09;;;;;;;3.80;2.85;;;23.70;57.90;;;;;;5035037;28;20232;-70
2022/07/20 04:42:35;;;;;;;2.92;2.72;;;23.70;57.90;;;;;;5052410;28;20211;-70
2022/07/20 04:45:01;;;;;;;3.47;3.17;;;23.60;57.80;;;;;;5052461;28;20209;-70
2022/07/20 04:47:27;;;;;;;3.70;3.40;;;23.60;57.80;;;;;;5052460;22;20231;-69
2022/07/20 04:49:53;;;;;;;3.42;3.13;;;23.70;58.00;;;;;;4994801;28;20188;-69
2022/07/20 04:52:18;;;;;;;3.35;3.10;;;23.60;57.80;;;;;;4994700;28;20647;-69
2022/07/20 04:54:44;;;;;;;3.17;2.90;;;23.70;57.90;;;;;;5011827;28;20215;-70
2022/07/20 04:57:10;;;;;;;3.50;3.20;;;23.70;57.80;;;;;;4994027;28;20265;-68
2022/07/20 04:59:37;;;;;;;3.60;3.30;;;23.60;57.80;;;;;;4994628;28;20180;-69
2022/07/20 05:02:04;;;;;;;3.03;2.83;;;23.70;57.90;;;;;;5011165;28;20212;-69
2022/07/20 05:04:30;;;;;;;3.53;3.22;;;23.60;57.90;;;;;;4998211;28;20192;-70
2022/07/20 05:06:55;;;;;;;3.75;3.45;;;23.60;57.90;;;;;;5010577;28;20294;-69
2022/07/20 05:09:21;;;;;;;3.35;3.05;;;23.60;58.00;;;;;;5010326;28;20196;-69
2022/07/20 05:11:47;;;;;;;3.22;3.00;;;23.60;58.00;;;;;;5012316;28;20279;-69
2022/07/20 05:14:13;;;;;;;3.53;3.33;;;23.60;58.00;;;;;;5012367;28;20199;-70
2022/07/20 05:16:39;;;;;;;3.50;3.20;;;23.60;58.00;;;;;;5014283;28;20219;-69
2022/07/20 05:19:05;;;;;;;3.13;2.92;;;23.60;58.00;;;;;;5030288;28;20196;-69
2022/07/20 05:21:31;;;;;;;3.63;3.28;;;23.60;58.00;;;;;;5014677;28;20576;-69
2022/07/20 05:23:57;;;;;;;3.70;3.35;;;23.60;58.10;;;;;;5014567;28;20192;-69
2022/07/20 05:26:22;;;;;;;3.30;3.00;;;23.60;58.10;;;;;;5014356;28;20222;-69
2022/07/20 05:28:48;;;;;;;4.15;3.28;;;23.60;58.10;;;;;;5014230;28;20187;-70
2022/07/20 05:31:14;;;;;;;3.83;3.45;;;23.60;58.20;;;;;;5014474;28;20203;-69
2022/07/20 05:33:43;;;;;;;3.88;3.58;;;23.60;58.20;;;;;;5003471;28;20259;-69
2022/07/20 05:36:10;;;;;;;3.33;3.03;;;23.60;58.30;;;;;;4978395;28;20346;-69
2022/07/20 05:38:36;;;;;;;3.83;3.08;;;23.60;58.40;;;;;;4994186;28;20246;-69
2022/07/20 05:41:02;;;;;;;3.78;3.08;;;23.60;58.40;;;;;;4996310;28;20570;-69
2022/07/20 05:43:28;;;;;;;3.40;3.10;;;23.60;58.40;;;;;;4994623;28;20528;-69
2022/07/20 05:45:54;;;;;;;3.90;3.55;;;23.60;58.50;;;;;;4995795;28;20181;-69
2022/07/20 05:48:20;;;;;;;4.97;3.08;;;23.60;58.50;;;;;;4994976;28;20215;-69
2022/07/20 05:50:46;;;;;;;3.35;3.05;;;23.60;58.60;;;;;;4978442;28;20255;-69
2022/07/20 05:53:14;;;;;;;3.85;3.42;;;23.60;58.60;;;;;;4994268;28;20695;-69
2022/07/20 05:55:41;;;;;;;3.33;2.85;;;23.60;58.70;;;;;;4994252;28;20192;-69
2022/07/20 05:58:09;;;;;;;4.07;3.05;;;23.60;58.70;;;;;;5005981;28;20208;-69
2022/07/20 06:00:36;;;;;;;4.82;3.45;;;23.60;58.80;;;;;;5014000;28;20668;-69
2022/07/20 06:03:03;;;;;;;3.17;2.90;;;23.60;58.80;;;;;;5013948;28;20184;-70
2022/07/20 06:05:30;;;;;;;4.43;3.53;;;23.60;58.90;;;;;;4997390;28;20196;-68
2022/07/20 06:08:01;;;;;;;3.22;2.90;;;23.60;58.90;;;;;;5013176;28;20220;-69
2022/07/20 06:10:29;;;;;;;3.20;2.90;;;23.60;58.90;;;;;;5013909;28;20195;-68
2022/07/20 06:12:56;;;;;;;3.78;3.17;;;23.60;58.90;;;;;;5013896;28;20275;-69
2022/07/20 06:15:25;;;;;;;3.55;3.25;;;23.60;58.90;;;;;;4997335;28;20184;-69
2022/07/20 06:17:53;;;;;;;3.50;3.20;;;23.60;58.90;;;;;;5012456;28;20208;-69
2022/07/20 06:20:19;;;;;;;3.42;3.13;;;23.60;59.00;;;;;;4996991;28;20250;-69
2022/07/20 06:22:45;;;;;;;3.65;3.33;;;23.60;59.10;;;;;;5012443;28;20228;-69
2022/07/20 06:25:15;;;;;;;3.60;3.30;;;23.60;58.90;;;;;;5012434;28;20266;-69
2022/07/20 06:27:41;;;;;;;3.63;2.95;;;23.60;59.00;;;;;;4994426;28;20243;-69
2022/07/20 06:30:10;;;;;;;3.33;3.03;;;23.60;59.00;;;;;;4995499;28;20203;-70
2022/07/20 06:32:36;;;;;;;3.58;3.30;;;23.60;59.10;;;;;;4995473;28;20188;-69
2022/07/20 06:35:03;;;;;;;3.58;3.28;;;23.60;59.10;;;;;;5011374;28;20233;-69
2022/07/20 06:37:28;;;;;;;3.70;3.30;;;23.60;59.20;;;;;;5010814;28;20208;-69
2022/07/20 06:39:54;;;;;;;3.47;3.17;;;23.60;59.20;;;;;;4995076;28;20192;-69
2022/07/20 06:42:20;;;;;;;3.50;3.20;;;23.60;59.20;;;;;;4995216;28;20184;-69
2022/07/20 06:44:46;;;;;;;3.40;3.15;;;23.60;59.20;;;;;;5010955;28;20188;-69
2022/07/20 06:47:13;;;;;;;3.42;3.00;;;23.60;59.00;;;;;;4995765;28;20326;-69
2022/07/20 06:49:40;;;;;;;3.65;3.30;;;23.60;59.00;;;;;;5012733;28;20180;-69
2022/07/20 06:52:06;;;;;;;2.60;2.40;;;23.60;59.00;;;;;;4997081;28;20659;-69
2022/07/20 06:54:31;;;;;;;3.50;3.20;;;23.60;59.00;;;;;;4996604;28;20287;-69
2022/07/20 06:56:57;;;;;;;3.50;3.03;;;23.60;58.90;;;;;;5012683;28;20223;-69
2022/07/20 06:59:23;;;;;;;3.67;3.20;;;23.60;58.90;;;;;;4995971;28;20188;-69
2022/07/20 07:01:50;;;;;;;3.92;3.20;;;23.60;59.00;;;;;;5012900;28;20274;-69
2022/07/20 07:04:16;;;;;;;3.28;2.90;;;23.60;59.00;;;;;;4996436;28;20256;-69
2022/07/20 07:06:42;;;;;;;3.58;3.25;;;23.60;59.00;;;;;;5012533;28;20223;-69
2022/07/20 07:09:09;;;;;;;4.43;2.85;;;23.60;59.20;;;;;;5011908;28;20185;-69
2022/07/20 07:11:36;;;;;;;3.83;3.05;;;23.60;59.20;;;;;;4996351;28;20652;-69
2022/07/20 07:14:04;;;;;;;3.97;3.13;;;23.60;59.20;;;;;;4996239;28;20184;-69
2022/07/20 07:16:29;;;;;;;3.92;2.85;;;23.60;59.30;;;;;;4996253;28;20208;-69
2022/07/20 07:18:55;;;;;;;3.47;3.17;;;23.60;59.30;;;;;;5011741;28;20286;-70
2022/07/20 07:21:21;;;;;;;3.28;2.85;;;23.60;59.20;;;;;;5012578;28;20275;-69
2022/07/20 07:23:49;;;;;;;4.38;3.05;;;23.60;59.20;;;;;;5012375;28;20188;-69
2022/07/20 07:26:20;;;;;;;3.72;2.97;;;23.60;59.30;;;;;;5012116;28;20215;-69
2022/07/20 07:28:47;;;;;;;4.72;3.22;;;23.60;59.30;;;;;;5011748;28;20227;-69
2022/07/20 07:31:12;;;;;;;3.97;2.95;;;23.60;59.30;;;;;;5012437;28;20188;-69
2022/07/20 07:33:38;;;;;;;3.28;2.97;;;23.60;59.20;;;;;;5012435;28;20180;-69
2022/07/20 07:36:05;;;;;;;3.30;3.00;;;23.60;59.20;;;;;;5011229;28;20191;-69
2022/07/20 07:38:31;;;;;;;3.42;3.13;;;23.60;59.30;;;;;;5011425;28;20746;-69
2022/07/20 07:40:57;;;;;;;4.07;3.20;;;23.60;59.30;;;;;;4995516;28;20274;-69
2022/07/20 07:43:22;;;;;;;4.15;3.30;;;23.60;59.30;;;;;;5013276;28;20182;-70
2022/07/20 07:45:48;;;;;;;4.45;3.10;;;23.60;59.40;;;;;;5012048;28;20184;-69
2022/07/20 07:48:14;;;;;;;3.60;3.00;;;23.60;59.40;;;;;;5011400;28;20239;-69
2022/07/20 07:50:43;;;;;;;3.13;2.92;;;23.60;59.40;;;;;;5012216;28;20241;-69
2022/07/20 07:53:09;;;;;;;3.50;3.20;;;23.60;59.50;;;;;;5011878;28;20188;-69
2022/07/20 07:55:39;;;;;;;3.25;3.05;;;23.60;59.50;;;;;;4995335;28;20187;-69
2022/07/20 07:58:08;;;;;;;5.18;3.35;;;23.60;59.50;;;;;;5012523;28;20208;-70
2022/07/20 08:00:35;;;;;;;3.53;3.22;;;23.60;59.40;;;;;;5011738;28;20199;-70
2022/07/20 08:03:02;;;;;;;3.78;3.33;;;23.60;59.30;;;;;;5008898;28;20195;-69
2022/07/20 08:05:28;;;;;;;3.33;2.90;;;23.70;59.40;;;;;;5012971;28;20184;-68
2022/07/20 08:07:54;;;;;;;3.13;2.92;;;23.70;59.30;;;;;;5010776;28;20219;-69
2022/07/20 08:10:20;;;;;;;3.88;3.30;;;23.70;59.30;;;;;;5011676;28;20280;-69
2022/07/20 08:12:46;;;;;;;3.63;3.30;;;23.70;59.20;;;;;;5011609;28;20196;-69
2022/07/20 08:15:13;;;;;;;3.70;3.40;;;23.70;59.20;;;;;;4995443;28;20188;-69
2022/07/20 08:17:43;;;;;;;3.97;3.03;;;23.70;59.10;;;;;;5010538;28;20215;-69
2022/07/20 08:20:09;;;;;;;4.00;3.60;;;23.70;59.10;;;;;;4995062;28;20577;-69
2022/07/20 08:22:35;;;;;;;3.80;3.50;;;23.80;59.10;;;;;;5011540;28;20279;-69
2022/07/20 08:25:01;;;;;;;3.83;3.53;;;23.80;59.10;;;;;;5011527;28;20263;-69
2022/07/20 08:27:27;;;;;;;4.15;3.13;;;23.80;59.10;;;;;;5012492;28;20224;-70
2022/07/20 08:29:58;;;;;;;3.50;3.20;;;23.80;59.10;;;;;;4994547;28;20192;-69
2022/07/20 08:32:25;;;;;;;3.83;3.15;;;23.80;59.10;;;;;;5011183;28;20180;-69
2022/07/20 08:34:51;;;;;;;3.47;3.17;;;23.80;59.10;;;;;;4995010;28;20199;-69
2022/07/20 08:37:17;;;;;;;3.50;3.20;;;23.80;59.10;;;;;;5010957;28;20236;-70
2022/07/20 08:39:43;;;;;;;3.33;3.05;;;23.80;59.10;;;;;;4994297;28;20200;-69
2022/07/20 08:42:11;;;;;;;3.28;2.97;;;23.80;59.10;;;;;;4995040;28;20259;-69
2022/07/20 08:44:43;;;;;;;3.35;3.08;;;23.80;59.00;;;;;;5010983;28;20250;-69
2022/07/20 08:47:12;;;;;;;3.30;3.00;;;23.80;59.10;;;;;;5011878;28;20204;-69
2022/07/20 08:49:44;;;;;;;3.22;3.00;;;23.90;59.20;;;;;;4994164;28;20200;-69
2022/07/20 08:52:10;;;;;;;3.33;3.00;;;23.90;59.20;;;;;;5011072;28;20188;-69
2022/07/20 08:54:37;;;;;;;5.47;3.47;;;23.90;59.20;;;;;;5011108;28;20238;-69
2022/07/20 08:57:15;;;;;;;3.30;2.90;;;23.90;59.20;;;;;;4994530;28;20204;-70
2022/07/20 08:59:42;;;;;;;3.20;3.00;;;23.90;59.20;;;;;;4994214;28;20203;-69
2022/07/20 09:02:09;;;;;;;3.63;3.33;;;23.90;59.20;;;;;;5011007;28;20199;-69
2022/07/20 09:04:57;;;;;;;3.47;3.17;;;23.90;59.10;;;;;;5010974;28;20188;-71
2022/07/20 09:07:41;;;;;;;3.72;3.42;;;24.00;59.30;;;;;;5010709;28;20258;-69
2022/07/20 09:10:13;;;;;;;3.22;3.00;;;23.90;59.20;;;;;;5012156;28;20180;-69
2022/07/20 09:12:55;;;;;;;3.50;3.20;;;23.90;59.20;;;;;;5010901;28;20188;-69
2022/07/20 09:15:27;;;;;;;4.28;3.60;;;23.90;59.20;;;;;;4997022;28;20176;-70
2022/07/20 09:18:30;;;;;;;3.47;3.05;;;24.00;59.20;;;;;;5009788;28;20320;-69
2022/07/20 09:21:07;;;;;;;3.42;3.13;;;24.00;59.20;;;;;;5004327;28;20211;-69
2022/07/20 09:23:42;;;;;;;3.45;3.15;;;24.00;59.20;;;;;;4994338;28;20207;-69
2022/07/20 09:26:15;;;;;;;3.58;3.28;;;24.00;59.20;;;;;;5010402;28;20199;-70
2022/07/20 09:28:45;;;;;;;3.45;3.15;;;24.00;59.20;;;;;;5010185;28;20192;-69
2022/07/20 09:31:13;;;;;;;3.55;3.25;;;24.00;59.20;;;;;;5010628;28;20180;-70
2022/07/20 09:33:47;;;;;;;3.50;3.00;;;24.00;59.20;;;;;;5010581;28;20189;-69
2022/07/20 09:36:14;;;;;;;3.05;2.80;;;24.00;59.20;;;;;;5026974;28;20183;-70
2022/07/20 09:38:41;;;;;;;2.90;2.70;;;24.00;59.20;;;;;;5011180;28;20215;-69
2022/07/20 09:41:29;;;;;;;3.45;3.15;;;24.00;59.20;;;;;;4993833;28;20192;-70
2022/07/20 09:43:57;;;;;;;3.45;3.10;;;24.00;59.30;;;;;;5010552;28;20184;-69
2022/07/20 09:46:33;;;;;;;3.72;3.42;;;24.00;59.20;;;;;;5009990;28;20255;-69
2022/07/20 09:49:07;;;;;;;3.33;3.10;;;24.00;59.30;;;;;;5010043;28;20230;-69
2022/07/20 09:51:37;;;;;;;4.28;3.50;;;24.00;59.40;;;;;;5011661;28;20192;-69
2022/07/20 09:54:10;;;;;;;3.55;3.25;;;24.00;60.00;;;;;;5010358;28;20189;-69
2022/07/20 09:56:40;;;;;;;3.22;3.03;;;24.00;59.30;;;;;;5010458;28;20280;-70
2022/07/20 09:59:11;;;;;;;3.20;2.90;;;24.00;59.30;;;;;;5009885;28;20655;-69
2022/07/20 10:01:41;;;;;;;3.35;3.08;;;24.00;59.40;;;;;;5013947;28;20223;-69
2022/07/20 10:04:10;;;;;;;3.33;3.00;;;24.00;59.40;;;;;;5013635;28;20184;-69
2022/07/20 10:06:39;;;;;;;3.70;3.40;;;24.00;59.30;;;;;;4997336;28;20220;-70
2022/07/20 10:09:07;;;;;;;3.17;2.92;;;24.00;59.30;;;;;;5013284;28;20652;-69
2022/07/20 10:11:33;;;;;;;3.10;2.90;;;24.00;59.40;;;;;;5013923;28;20723;-69
2022/07/20 10:14:03;;;;;;;2.78;2.58;;;24.00;59.30;;;;;;4997231;28;20275;-69
2022/07/20 10:16:57;;;;;;;4.95;3.05;;;24.00;59.40;;;;;;5013974;28;20238;-69
2022/07/20 10:19:45;;;;;;;3.45;3.15;;;24.00;59.30;;;;;;5014430;28;20185;-69
2022/07/20 10:22:12;;;;;;;3.63;3.25;;;24.00;59.40;;;;;;5013620;28;20321;-69
2022/07/20 10:24:39;;;;;;;3.72;3.42;;;24.00;59.80;;;;;;5013485;28;20574;-69
2022/07/20 10:27:08;;;;;;;2.80;2.60;;;24.00;59.30;;;;;;5014749;28;20211;-69
2022/07/20 10:29:38;;;;;;;3.40;3.05;;;24.10;59.40;;;;;;4996455;28;20196;-69
2022/07/20 10:32:10;;;;;;;3.42;3.13;;;24.00;59.30;;;;;;4997102;28;20188;-70
2022/07/20 10:34:48;;;;;;;3.38;3.08;;;24.10;59.30;;;;;;5013272;28;20188;-69
2022/07/20 10:37:36;;;;;;;3.13;2.92;;;24.10;59.30;;;;;;5013545;28;20212;-69
2022/07/20 10:40:23;;;;;;;3.90;3.50;;;24.10;59.30;;;;;;4996442;28;20539;-69
2022/07/20 10:42:53;;;;;;;3.55;3.25;;;24.10;59.30;;;;;;5029636;28;20586;-68
2022/07/20 10:45:23;;;;;;;3.30;3.00;;;24.10;59.40;;;;;;5013244;28;20196;-69
2022/07/20 10:48:03;;;;;;;3.28;2.97;;;24.10;59.40;;;;;;4995891;28;20222;-69
2022/07/20 10:50:37;;;;;;;3.70;3.13;;;24.10;59.30;;;;;;5013103;28;20242;-70
2022/07/20 10:53:12;;;;;;;3.42;3.13;;;24.10;59.30;;;;;;5012982;28;20243;-69
2022/07/20 10:55:37;;;;;;;2.78;2.58;;;24.10;59.30;;;;;;5019947;23;20248;-69
2022/07/20 10:58:14;;;;;;;2.80;2.60;;;24.10;59.30;;;;;;5012158;28;20192;-70
2022/07/20 11:00:51;;;;;;;3.33;3.03;;;24.10;59.30;;;;;;5029913;28;20226;-71
2022/07/20 11:03:25;;;;;;;3.40;3.10;;;24.10;59.30;;;;;;4996905;28;20180;-70
2022/07/20 11:06:16;;;;;;;2.95;2.75;;;24.10;59.30;;;;;;5003103;28;20212;-70
2022/07/20 11:08:54;;;;;;;3.05;2.75;;;24.10;59.30;;;;;;4992952;28;20216;-70
2022/07/20 11:11:23;;;;;;;3.30;3.03;;;24.10;59.30;;;;;;4993335;28;20226;-70
2022/07/20 11:13:50;;;;;;;3.42;3.13;;;24.10;59.30;;;;;;5010050;28;20173;-71
2022/07/20 11:16:23;;;;;;;3.10;2.83;;;24.10;59.30;;;;;;4993244;28;20209;-71
2022/07/20 11:18:51;;;;;;;3.30;3.00;;;24.10;59.30;;;;;;4992554;28;20185;-69
2022/07/20 11:21:27;;;;;;;3.10;2.90;;;24.10;59.40;;;;;;4993548;28;20172;-70
2022/07/20 11:23:53;;;;;;;5.22;3.20;;;24.10;59.50;;;;;;4993443;28;20263;-70
2022/07/20 11:26:21;;;;;;;3.45;3.17;;;24.10;59.30;;;;;;4994092;28;20217;-70
2022/07/20 11:28:51;;;;;;;3.10;2.90;;;24.10;59.30;;;;;;4992778;28;20224;-70
2022/07/20 11:31:20;;;;;;;3.13;2.85;;;24.10;59.30;;;;;;4994285;28;20185;-70
2022/07/20 11:33:49;;;;;;;3.30;3.10;;;24.10;59.30;;;;;;4993128;28;20719;-70
2022/07/20 11:36:27;;;;;;;3.95;2.92;;;24.10;59.30;;;;;;4976748;28;20249;-70
2022/07/20 11:38:59;;;;;;;3.50;3.20;;;24.10;59.30;;;;;;4993541;28;20188;-70
2022/07/20 11:41:34;;;;;;;3.50;3.20;;;24.10;59.30;;;;;;4993060;28;20185;-70
2022/07/20 11:44:02;;;;;;;3.92;3.60;;;24.10;59.30;;;;;;4992883;28;20184;-70
2022/07/20 11:46:36;;;;;;;3.65;3.35;;;24.10;59.30;;;;;;4992557;28;20225;-70
2022/07/20 11:49:06;;;;;;;4.22;3.83;;;24.10;59.30;;;;;;4992516;28;20181;-70
2022/07/20 11:51:35;;;;;;;4.00;3.60;;;24.10;59.30;;;;;;5009215;28;20664;-70
2022/07/20 11:54:06;;;;;;;3.72;3.42;;;24.10;59.20;;;;;;4993909;28;20191;-71
2022/07/20 11:56:35;;;;;;;3.15;2.95;;;24.10;59.30;;;;;;4993473;28;20220;-70
2022/07/20 11:59:05;;;;;;;3.78;3.42;;;24.10;59.20;;;;;;5008320;28;20216;-71
2022/07/20 12:01:36;;;;;;;3.40;3.10;;;24.10;59.10;;;;;;5008992;28;20188;-71
2022/07/20 12:04:13;;;;;;;4.35;3.20;;;24.10;59.20;;;;;;4992771;28;20181;-70
2022/07/20 12:06:41;;;;;;;3.38;3.08;;;24.10;59.30;;;;;;4992775;28;20215;-70
2022/07/20 12:09:12;;;;;;;3.58;3.28;;;24.10;59.20;;;;;;5007609;28;20283;-70
2022/07/20 12:11:59;;;;;;;3.95;3.58;;;24.10;59.20;;;;;;5008553;28;20208;-70
2022/07/20 12:14:33;;;;;;;3.85;3.50;;;24.10;59.20;;;;;;4975229;28;20267;-70
2022/07/20 12:17:16;;;;;;;3.58;3.33;;;24.10;59.10;;;;;;4991783;28;20236;-70
2022/07/20 12:19:45;;;;;;;3.85;3.55;;;24.10;59.10;;;;;;5007250;28;20193;-71
2022/07/20 12:22:32;;;;;;;3.50;3.10;;;24.10;59.10;;;;;;4991255;28;20196;-70
2022/07/20 12:25:03;;;;;;;3.45;3.22;;;24.10;59.00;;;;;;4993080;28;20684;-70
2022/07/20 12:27:32;;;;;;;3.72;3.42;;;24.10;59.20;;;;;;5008137;28;20242;-70
2022/07/20 12:30:00;;;;;;;4.05;3.15;;;24.10;59.10;;;;;;5007404;28;20184;-70
2022/07/20 12:32:33;;;;;;;3.72;3.33;;;24.10;59.10;;;;;;5007913;28;20184;-70
2022/07/20 12:35:02;;;;;;;3.25;3.05;;;24.10;59.10;;;;;;5007803;28;20252;-70
2022/07/20 12:37:54;;;;;;;4.18;3.88;;;24.10;59.30;;;;;;5007718;28;20207;-70
2022/07/20 12:40:41;;;;;;;3.67;3.28;;;24.10;59.30;;;;;;5007388;28;20220;-70
2022/07/20 12:43:45;;;;;;;3.40;3.10;;;24.10;59.40;;;;;;4991341;28;20219;-70
2022/07/20 12:46:16;;;;;;;3.92;3.60;;;24.10;59.30;;;;;;4935573;29;20228;-71
2022/07/20 12:48:45;;;;;;;3.50;3.20;;;24.10;59.30;;;;;;4935173;29;20194;-71
2022/07/20 12:51:13;;;;;;;3.72;3.42;;;24.10;59.20;;;;;;4972863;28;20208;-71
2022/07/20 12:53:41;;;;;;;3.35;3.05;;;24.10;59.20;;;;;;5007736;28;20189;-71
2022/07/20 12:56:08;;;;;;;3.40;3.10;;;24.10;59.20;;;;;;4991266;28;20212;-72
2022/07/20 12:58:35;;;;;;;3.88;3.58;;;24.10;59.30;;;;;;5007062;28;20219;-71